sensor_id;sensor_type;location;lat;lon;timestamp;pressure;altitude;pressure_sealevel;temperature;humidity
54540;BME280;40438;52.992;18.604;2022-08-05T00:01:52;100945.59;;;22.41;60.13
54540;BME280;40438;52.992;18.604;2022-08-05T00:04:17;100940.91;;;22.46;59.98
54540;BME280;40438;52.992;18.604;2022-08-05T00:06:43;100939.28;;;22.45;59.67
54540;BME280;40438;52.992;18.604;2022-08-05T00:09:09;100939.34;;;22.40;60.00
54540;BME280;40438;52.992;18.604;2022-08-05T00:11:35;100936.03;;;22.43;59.82
54540;BME280;40438;52.992;18.604;2022-08-05T00:14:02;100939.34;;;22.40;60.01
54540;BME280;40438;52.992;18.604;2022-08-05T00:16:28;100946.06;;;22.48;59.63
54540;BME280;40438;52.992;18.604;2022-08-05T00:18:54;100942.25;;;22.49;59.77
54540;BME280;40438;52.992;18.604;2022-08-05T00:21:20;100934.69;;;22.41;59.80
54540;BME280;40438;52.992;18.604;2022-08-05T00:23:46;100940.94;;;22.41;59.80
54540;BME280;40438;52.992;18.604;2022-08-05T00:26:12;100942.88;;;22.41;59.93
54540;BME280;40438;52.992;18.604;2022-08-05T00:28:38;100941.53;;;22.38;60.02
54540;BME280;40438;52.992;18.604;2022-08-05T00:31:06;100938.53;;;22.40;59.80
54540;BME280;40438;52.992;18.604;2022-08-05T00:33:32;100935.50;;;22.41;59.96
54540;BME280;40438;52.992;18.604;2022-08-05T00:35:58;100938.75;;;22.43;60.27
54540;BME280;40438;52.992;18.604;2022-08-05T00:38:24;100941.28;;;22.35;60.17
54540;BME280;40438;52.992;18.604;2022-08-05T00:40:51;100942.69;;;22.32;60.33
54540;BME280;40438;52.992;18.604;2022-08-05T00:43:17;100944.91;;;22.30;60.60
54540;BME280;40438;52.992;18.604;2022-08-05T00:45:43;100947.63;;;22.30;60.68
54540;BME280;40438;52.992;18.604;2022-08-05T00:48:11;100948.72;;;22.29;60.75
54540;BME280;40438;52.992;18.604;2022-08-05T00:50:38;100943.25;;;22.29;60.89
54540;BME280;40438;52.992;18.604;2022-08-05T00:53:04;100950.69;;;22.23;61.65
54540;BME280;40438;52.992;18.604;2022-08-05T00:55:29;100950.97;;;22.22;61.99
54540;BME280;40438;52.992;18.604;2022-08-05T00:57:55;100952.88;;;22.21;62.27
54540;BME280;40438;52.992;18.604;2022-08-05T01:00:21;100951.28;;;22.15;63.04
54540;BME280;40438;52.992;18.604;2022-08-05T01:02:47;100951.56;;;22.14;63.01
54540;BME280;40438;52.992;18.604;2022-08-05T01:05:14;100954.31;;;22.09;63.27
54540;BME280;40438;52.992;18.604;2022-08-05T01:07:39;100958.16;;;22.08;63.14
54540;BME280;40438;52.992;18.604;2022-08-05T01:10:07;100950.00;;;22.02;62.82
54540;BME280;40438;52.992;18.604;2022-08-05T01:12:34;100949.47;;;22.00;62.40
54540;BME280;40438;52.992;18.604;2022-08-05T01:15:04;100941.88;;;21.97;62.23
54540;BME280;40438;52.992;18.604;2022-08-05T01:17:35;100945.13;;;21.99;62.22
54540;BME280;40438;52.992;18.604;2022-08-05T01:20:11;100936.97;;;21.94;62.56
54540;BME280;40438;52.992;18.604;2022-08-05T01:22:53;100938.09;;;21.93;62.63
54540;BME280;40438;52.992;18.604;2022-08-05T01:25:39;100935.34;;;21.93;62.76
54540;BME280;40438;52.992;18.604;2022-08-05T01:28:17;100931.53;;;21.94;62.81
54540;BME280;40438;52.992;18.604;2022-08-05T01:30:50;100932.94;;;21.92;62.87
54540;BME280;40438;52.992;18.604;2022-08-05T01:33:17;100933.19;;;21.90;62.60
54540;BME280;40438;52.992;18.604;2022-08-05T01:35:46;100939.28;;;21.82;63.45
54540;BME280;40438;52.992;18.604;2022-08-05T01:38:14;100929.53;;;21.71;63.94
54540;BME280;40438;52.992;18.604;2022-08-05T01:40:42;100930.13;;;21.63;64.13
54540;BME280;40438;52.992;18.604;2022-08-05T01:43:08;100924.72;;;21.58;64.63
54540;BME280;40438;52.992;18.604;2022-08-05T01:45:38;100930.44;;;21.56;64.50
54540;BME280;40438;52.992;18.604;2022-08-05T01:48:05;100928.59;;;21.51;64.73
54540;BME280;40438;52.992;18.604;2022-08-05T01:50:36;100933.22;;;21.51;64.89
54540;BME280;40438;52.992;18.604;2022-08-05T01:53:06;100925.88;;;21.51;64.75
54540;BME280;40438;52.992;18.604;2022-08-05T01:55:35;100931.56;;;21.50;64.77
54540;BME280;40438;52.992;18.604;2022-08-05T01:58:04;100923.72;;;21.43;64.91
54540;BME280;40438;52.992;18.604;2022-08-05T02:00:33;100925.63;;;21.43;64.85
54540;BME280;40438;52.992;18.604;2022-08-05T02:03:06;100919.41;;;21.37;65.08
54540;BME280;40438;52.992;18.604;2022-08-05T02:05:34;100918.03;;;21.35;64.71
54540;BME280;40438;52.992;18.604;2022-08-05T02:08:01;100916.69;;;21.37;64.77
54540;BME280;40438;52.992;18.604;2022-08-05T02:10:33;100912.88;;;21.38;64.48
54540;BME280;40438;52.992;18.604;2022-08-05T02:13:03;100909.09;;;21.29;64.75
54540;BME280;40438;52.992;18.604;2022-08-05T02:15:34;100917.25;;;21.29;64.84
54540;BME280;40438;52.992;18.604;2022-08-05T02:18:04;100910.44;;;21.26;64.99
54540;BME280;40438;52.992;18.604;2022-08-05T02:20:37;100903.38;;;21.25;65.13
54540;BME280;40438;52.992;18.604;2022-08-05T02:23:07;100907.50;;;21.18;65.27
54540;BME280;40438;52.992;18.604;2022-08-05T02:25:35;100910.53;;;21.11;65.54
54540;BME280;40438;52.992;18.604;2022-08-05T02:28:02;100895.56;;;21.08;65.51
54540;BME280;40438;52.992;18.604;2022-08-05T02:30:38;100893.41;;;21.05;65.73
54540;BME280;40438;52.992;18.604;2022-08-05T02:33:09;100902.13;;;21.07;65.72
54540;BME280;40438;52.992;18.604;2022-08-05T02:35:36;100901.59;;;21.00;66.31
54540;BME280;40438;52.992;18.604;2022-08-05T02:38:05;100906.25;;;20.95;66.25
54540;BME280;40438;52.992;18.604;2022-08-05T02:40:31;100894.59;;;20.84;66.88
54540;BME280;40438;52.992;18.604;2022-08-05T02:42:58;100892.19;;;20.77;67.29
54540;BME280;40438;52.992;18.604;2022-08-05T02:45:26;100891.38;;;20.72;67.34
54540;BME280;40438;52.992;18.604;2022-08-05T02:47:54;100895.47;;;20.69;67.36
54540;BME280;40438;52.992;18.604;2022-08-05T02:50:23;100895.22;;;20.66;67.32
54540;BME280;40438;52.992;18.604;2022-08-05T02:52:50;100886.81;;;20.57;67.47
54540;BME280;40438;52.992;18.604;2022-08-05T02:55:16;100892.50;;;20.50;68.00
54540;BME280;40438;52.992;18.604;2022-08-05T02:57:43;100888.72;;;20.41;68.36
54540;BME280;40438;52.992;18.604;2022-08-05T03:00:12;100882.22;;;20.32;68.58
54540;BME280;40438;52.992;18.604;2022-08-05T03:02:39;100886.59;;;20.28;68.44
54540;BME280;40438;52.992;18.604;2022-08-05T03:05:08;100881.41;;;20.31;68.46
54540;BME280;40438;52.992;18.604;2022-08-05T03:07:37;100879.22;;;20.28;68.29
54540;BME280;40438;52.992;18.604;2022-08-05T03:10:04;100888.75;;;20.31;68.16
54540;BME280;40438;52.992;18.604;2022-08-05T03:12:30;100883.03;;;20.32;68.24
54540;BME280;40438;52.992;18.604;2022-08-05T03:14:56;100882.47;;;20.35;68.24
54540;BME280;40438;52.992;18.604;2022-08-05T03:17:22;100886.56;;;20.38;67.94
54540;BME280;40438;52.992;18.604;2022-08-05T03:19:48;100885.50;;;20.34;67.87
54540;BME280;40438;52.992;18.604;2022-08-05T03:22:13;100876.50;;;20.33;68.13
54540;BME280;40438;52.992;18.604;2022-08-05T03:24:41;100873.78;;;20.28;68.27
54540;BME280;40438;52.992;18.604;2022-08-05T03:27:07;100881.41;;;20.31;68.30
54540;BME280;40438;52.992;18.604;2022-08-05T03:29:33;100884.13;;;20.31;68.51
54540;BME280;40438;52.992;18.604;2022-08-05T03:31:59;100880.84;;;20.39;68.24
54540;BME280;40438;52.992;18.604;2022-08-05T03:34:26;100879.75;;;20.35;68.38
54540;BME280;40438;52.992;18.604;2022-08-05T03:36:52;100874.31;;;20.35;68.73
54540;BME280;40438;52.992;18.604;2022-08-05T03:39:18;100877.28;;;20.39;68.53
54540;BME280;40438;52.992;18.604;2022-08-05T03:41:45;100877.84;;;20.36;68.96
54540;BME280;40438;52.992;18.604;2022-08-05T03:44:11;100881.41;;;20.36;69.11
54540;BME280;40438;52.992;18.604;2022-08-05T03:46:36;100881.66;;;20.35;69.45
54540;BME280;40438;52.992;18.604;2022-08-05T03:49:02;100891.44;;;20.36;70.02
54540;BME280;40438;52.992;18.604;2022-08-05T03:51:31;100890.13;;;20.28;70.75
54540;BME280;40438;52.992;18.604;2022-08-05T03:54:04;100886.59;;;20.23;71.14
54540;BME280;40438;52.992;18.604;2022-08-05T03:56:35;100882.78;;;20.24;71.46
54540;BME280;40438;52.992;18.604;2022-08-05T03:59:07;100882.25;;;20.27;71.82
54540;BME280;40438;52.992;18.604;2022-08-05T04:01:36;100875.19;;;20.21;72.63
54540;BME280;40438;52.992;18.604;2022-08-05T04:04:04;100881.41;;;20.31;72.29
54540;BME280;40438;52.992;18.604;2022-08-05T04:06:32;100877.88;;;20.31;72.68
54540;BME280;40438;52.992;18.604;2022-08-05T04:08:58;100883.84;;;20.33;72.70
54540;BME280;40438;52.992;18.604;2022-08-05T04:11:24;100874.34;;;20.30;72.63
54540;BME280;40438;52.992;18.604;2022-08-05T04:13:50;100873.78;;;20.33;72.51
54540;BME280;40438;52.992;18.604;2022-08-05T04:16:18;100869.97;;;20.34;72.42
54540;BME280;40438;52.992;18.604;2022-08-05T04:18:45;100868.06;;;20.40;72.32
54540;BME280;40438;52.992;18.604;2022-08-05T04:21:11;100865.09;;;20.36;72.92
54540;BME280;40438;52.992;18.604;2022-08-05T04:23:37;100871.31;;;20.42;72.35
54540;BME280;40438;52.992;18.604;2022-08-05T04:26:03;100867.75;;;20.52;71.60
54540;BME280;40438;52.992;18.604;2022-08-05T04:28:29;100862.59;;;20.55;71.53
54540;BME280;40438;52.992;18.604;2022-08-05T04:30:55;100871.78;;;20.64;71.07
54540;BME280;40438;52.992;18.604;2022-08-05T04:33:22;100865.81;;;20.68;70.94
54540;BME280;40438;52.992;18.604;2022-08-05T04:35:48;100858.69;;;20.77;70.44
54540;BME280;40438;52.992;18.604;2022-08-05T04:38:14;100857.00;;;20.86;70.29
54540;BME280;40438;52.992;18.604;2022-08-05T04:40:40;100857.00;;;20.86;70.65
54540;BME280;40438;52.992;18.604;2022-08-05T04:43:06;100855.13;;;20.81;69.82
54540;BME280;40438;52.992;18.604;2022-08-05T04:45:32;100853.25;;;20.77;70.01
54540;BME280;40438;52.992;18.604;2022-08-05T04:48:03;100853.47;;;20.85;70.19
54540;BME280;40438;52.992;18.604;2022-08-05T04:50:30;100852.91;;;20.94;69.80
54540;BME280;40438;52.992;18.604;2022-08-05T04:53:00;100855.34;;;20.95;69.42
54540;BME280;40438;52.992;18.604;2022-08-05T04:55:26;100850.38;;;21.02;69.03
54540;BME280;40438;52.992;18.604;2022-08-05T04:57:51;100847.16;;;21.00;69.26
54540;BME280;40438;52.992;18.604;2022-08-05T05:00:17;100840.56;;;21.06;68.81
54540;BME280;40438;52.992;18.604;2022-08-05T05:02:43;100844.38;;;21.05;69.12
54540;BME280;40438;52.992;18.604;2022-08-05T05:05:09;100842.94;;;21.18;67.92
54540;BME280;40438;52.992;18.604;2022-08-05T05:07:36;100838.03;;;21.20;68.28
54540;BME280;40438;52.992;18.604;2022-08-05T05:10:02;100849.97;;;21.29;67.28
54540;BME280;40438;52.992;18.604;2022-08-05T05:12:27;100851.34;;;21.27;67.23
54540;BME280;40438;52.992;18.604;2022-08-05T05:14:53;100852.94;;;21.33;67.82
54540;BME280;40438;52.992;18.604;2022-08-05T05:17:19;100849.41;;;21.38;66.65
54540;BME280;40438;52.992;18.604;2022-08-05T05:19:44;100853.19;;;21.42;66.45
54540;BME280;40438;52.992;18.604;2022-08-05T05:22:10;100850.97;;;21.44;66.80
54540;BME280;40438;52.992;18.604;2022-08-05T05:24:37;100857.97;;;21.55;66.49
54540;BME280;40438;52.992;18.604;2022-08-05T05:27:03;100854.94;;;21.56;65.73
54540;BME280;40438;52.992;18.604;2022-08-05T05:29:29;100854.09;;;21.66;65.62
54540;BME280;40438;52.992;18.604;2022-08-05T05:31:55;100856.25;;;21.69;65.84
54540;BME280;40438;52.992;18.604;2022-08-05T05:34:20;100846.88;;;21.75;65.74
54540;BME280;40438;52.992;18.604;2022-08-05T05:36:46;100853.13;;;21.81;65.61
54540;BME280;40438;52.992;18.604;2022-08-05T05:39:12;100848.66;;;21.90;65.70
54540;BME280;40438;52.992;18.604;2022-08-05T05:41:39;100848.06;;;21.98;64.92
54540;BME280;40438;52.992;18.604;2022-08-05T05:44:04;100845.50;;;22.07;64.83
54540;BME280;40438;52.992;18.604;2022-08-05T05:46:30;100846.25;;;22.13;64.49
54540;BME280;40438;52.992;18.604;2022-08-05T05:48:56;100845.72;;;22.16;64.34
54540;BME280;40438;52.992;18.604;2022-08-05T05:51:23;100847.81;;;22.24;63.75
54540;BME280;40438;52.992;18.604;2022-08-05T05:53:50;100845.09;;;22.24;64.14
54540;BME280;40438;52.992;18.604;2022-08-05T05:56:16;100841.22;;;22.30;62.98
54540;BME280;40438;52.992;18.604;2022-08-05T05:58:44;100846.66;;;22.30;62.56
54540;BME280;40438;52.992;18.604;2022-08-05T06:01:09;100844.44;;;22.32;63.11
54540;BME280;40438;52.992;18.604;2022-08-05T06:03:35;100854.50;;;22.37;63.41
54540;BME280;40438;52.992;18.604;2022-08-05T06:06:01;100850.13;;;22.36;62.69
54540;BME280;40438;52.992;18.604;2022-08-05T06:08:26;100846.00;;;22.38;63.37
54540;BME280;40438;52.992;18.604;2022-08-05T06:10:52;100848.88;;;22.52;62.74
54540;BME280;40438;52.992;18.604;2022-08-05T06:13:18;100850.75;;;22.52;62.98
54540;BME280;40438;52.992;18.604;2022-08-05T06:15:45;100857.78;;;22.58;63.35
54540;BME280;40438;52.992;18.604;2022-08-05T06:18:11;100847.94;;;22.62;63.12
54540;BME280;40438;52.992;18.604;2022-08-05T06:20:36;100856.56;;;22.69;63.06
54540;BME280;40438;52.992;18.604;2022-08-05T06:23:02;100848.59;;;22.73;62.82
54540;BME280;40438;52.992;18.604;2022-08-05T06:25:28;100846.03;;;22.81;62.65
54540;BME280;40438;52.992;18.604;2022-08-05T06:27:53;100848.63;;;22.91;62.85
54540;BME280;40438;52.992;18.604;2022-08-05T06:30:19;100837.91;;;23.00;62.35
54540;BME280;40438;52.992;18.604;2022-08-05T06:32:46;100832.56;;;23.09;62.26
54540;BME280;40438;52.992;18.604;2022-08-05T06:35:12;100846.09;;;23.19;62.50
54540;BME280;40438;52.992;18.604;2022-08-05T06:37:38;100839.34;;;23.30;61.94
54540;BME280;40438;52.992;18.604;2022-08-05T06:40:04;100838.69;;;23.38;62.02
54540;BME280;40438;52.992;18.604;2022-08-05T06:42:30;100839.63;;;23.48;62.05
54540;BME280;40438;52.992;18.604;2022-08-05T06:44:56;100832.88;;;23.59;62.06
54540;BME280;40438;52.992;18.604;2022-08-05T06:47:22;100831.63;;;23.70;61.23
54540;BME280;40438;52.992;18.604;2022-08-05T06:49:49;100833.91;;;23.82;61.00
54540;BME280;40438;52.992;18.604;2022-08-05T06:52:14;100829.84;;;23.93;60.99
54540;BME280;40438;52.992;18.604;2022-08-05T06:54:40;100833.00;;;24.00;60.32
54540;BME280;40438;52.992;18.604;2022-08-05T06:57:06;100816.41;;;24.11;60.40
54540;BME280;40438;52.992;18.604;2022-08-05T06:59:32;100820.56;;;24.22;60.18
54540;BME280;40438;52.992;18.604;2022-08-05T07:01:57;100820.16;;;24.28;59.62
54540;BME280;40438;52.992;18.604;2022-08-05T07:04:23;100821.56;;;24.40;58.24
54540;BME280;40438;52.992;18.604;2022-08-05T07:06:50;100802.31;;;24.45;57.86
54540;BME280;40438;52.992;18.604;2022-08-05T07:09:16;100808.91;;;24.58;57.17
54540;BME280;40438;52.992;18.604;2022-08-05T07:11:41;100804.84;;;24.69;57.40
54540;BME280;40438;52.992;18.604;2022-08-05T07:14:07;100801.56;;;24.81;57.83
54540;BME280;40438;52.992;18.604;2022-08-05T07:16:33;100800.53;;;24.90;56.90
54540;BME280;40438;52.992;18.604;2022-08-05T07:18:59;100801.72;;;24.98;55.97
54540;BME280;40438;52.992;18.604;2022-08-05T07:21:24;100804.22;;;25.08;57.08
54540;BME280;40438;52.992;18.604;2022-08-05T07:23:51;100795.78;;;25.18;57.27
54540;BME280;40438;52.992;18.604;2022-08-05T07:26:17;100795.38;;;25.25;56.86
54540;BME280;40438;52.992;18.604;2022-08-05T07:28:43;100788.31;;;25.33;55.58
54540;BME280;40438;52.992;18.604;2022-08-05T07:31:08;100788.50;;;25.36;56.31
54540;BME280;40438;52.992;18.604;2022-08-05T07:33:34;100791.81;;;25.47;55.11
54540;BME280;40438;52.992;18.604;2022-08-05T07:36:00;100794.28;;;25.57;54.42
54540;BME280;40438;52.992;18.604;2022-08-05T07:38:26;100791.09;;;25.64;54.65
54540;BME280;40438;52.992;18.604;2022-08-05T07:40:53;100779.84;;;25.74;54.19
54540;BME280;40438;52.992;18.604;2022-08-05T07:43:19;100786.72;;;25.85;53.62
54540;BME280;40438;52.992;18.604;2022-08-05T07:45:45;100787.06;;;25.92;53.22
54540;BME280;40438;52.992;18.604;2022-08-05T07:48:11;100788.03;;;25.97;53.07
54540;BME280;40438;52.992;18.604;2022-08-05T07:50:36;100779.19;;;26.00;52.61
54540;BME280;40438;52.992;18.604;2022-08-05T07:53:02;100786.94;;;26.06;52.55
54540;BME280;40438;52.992;18.604;2022-08-05T07:55:28;100779.38;;;26.12;52.88
54540;BME280;40438;52.992;18.604;2022-08-05T07:57:55;100773.97;;;26.29;51.72
54540;BME280;40438;52.992;18.604;2022-08-05T08:00:21;100772.66;;;26.35;50.08
54540;BME280;40438;52.992;18.604;2022-08-05T08:02:47;100775.59;;;26.48;50.39
54540;BME280;40438;52.992;18.604;2022-08-05T08:05:13;100770.16;;;26.56;49.60
54540;BME280;40438;52.992;18.604;2022-08-05T08:07:38;100762.72;;;26.66;51.44
54540;BME280;40438;52.992;18.604;2022-08-05T08:10:04;100765.00;;;26.72;49.98
54540;BME280;40438;52.992;18.604;2022-08-05T08:12:30;100763.56;;;26.75;49.06
54540;BME280;40438;52.992;18.604;2022-08-05T08:14:57;100769.22;;;26.78;49.11
54540;BME280;40438;52.992;18.604;2022-08-05T08:17:23;100770.00;;;26.79;47.30
54540;BME280;40438;52.992;18.604;2022-08-05T08:19:49;100767.41;;;26.82;48.22
54540;BME280;40438;52.992;18.604;2022-08-05T08:22:15;100763.06;;;26.90;48.97
54540;BME280;40438;52.992;18.604;2022-08-05T08:24:41;100757.75;;;27.02;47.67
54540;BME280;40438;52.992;18.604;2022-08-05T08:27:07;100755.44;;;27.13;46.08
54540;BME280;40438;52.992;18.604;2022-08-05T08:29:34;100759.19;;;27.17;45.47
54540;BME280;40438;52.992;18.604;2022-08-05T08:32:01;100764.19;;;27.24;46.23
54540;BME280;40438;52.992;18.604;2022-08-05T08:34:26;100766.44;;;27.30;44.73
54540;BME280;40438;52.992;18.604;2022-08-05T08:36:52;100753.19;;;27.24;44.88
54540;BME280;40438;52.992;18.604;2022-08-05T08:39:18;100766.13;;;27.32;44.85
54540;BME280;40438;52.992;18.604;2022-08-05T08:41:46;100755.94;;;27.41;45.44
54540;BME280;40438;52.992;18.604;2022-08-05T08:44:13;100755.91;;;27.50;44.15
54540;BME280;40438;52.992;18.604;2022-08-05T08:46:40;100750.41;;;27.50;44.26
54540;BME280;40438;52.992;18.604;2022-08-05T08:49:08;100763.47;;;27.62;43.87
54540;BME280;40438;52.992;18.604;2022-08-05T08:51:39;100746.44;;;27.68;43.60
54540;BME280;40438;52.992;18.604;2022-08-05T08:54:05;100743.69;;;27.77;43.12
54540;BME280;40438;52.992;18.604;2022-08-05T08:56:31;100760.34;;;27.81;43.52
54540;BME280;40438;52.992;18.604;2022-08-05T08:58:58;100731.72;;;27.73;42.97
54540;BME280;40438;52.992;18.604;2022-08-05T09:01:25;100733.47;;;27.86;43.36
54540;BME280;40438;52.992;18.604;2022-08-05T09:03:52;100732.91;;;28.02;42.82
54540;BME280;40438;52.992;18.604;2022-08-05T09:06:20;100727.50;;;28.14;41.81
54540;BME280;40438;52.992;18.604;2022-08-05T09:08:45;100729.75;;;28.12;41.31
54540;BME280;40438;52.992;18.604;2022-08-05T09:11:11;100715.19;;;28.11;41.08
54540;BME280;40438;52.992;18.604;2022-08-05T09:13:38;100720.31;;;28.21;41.57
54540;BME280;40438;52.992;18.604;2022-08-05T09:16:04;100720.13;;;28.27;41.17
54540;BME280;40438;52.992;18.604;2022-08-05T09:18:30;100715.19;;;28.32;41.14
54540;BME280;40438;52.992;18.604;2022-08-05T09:20:56;100721.06;;;28.31;40.39
54540;BME280;40438;52.992;18.604;2022-08-05T09:23:23;100710.00;;;28.39;41.44
54540;BME280;40438;52.992;18.604;2022-08-05T09:25:50;100707.06;;;28.44;39.57
54540;BME280;40438;52.992;18.604;2022-08-05T09:28:18;100696.31;;;28.52;39.94
54540;BME280;40438;52.992;18.604;2022-08-05T09:30:52;100694.97;;;28.58;40.32
54540;BME280;40438;52.992;18.604;2022-08-05T09:33:18;100689.59;;;28.61;40.22
54540;BME280;40438;52.992;18.604;2022-08-05T09:35:52;100686.63;;;28.66;39.75
54540;BME280;40438;52.992;18.604;2022-08-05T09:38:20;100689.19;;;28.72;39.89
54540;BME280;40438;52.992;18.604;2022-08-05T09:40:47;100690.50;;;28.86;39.18
54540;BME280;40438;52.992;18.604;2022-08-05T09:43:25;100686.97;;;28.98;39.07
54540;BME280;40438;52.992;18.604;2022-08-05T09:45:52;100684.38;;;29.02;39.11
54540;BME280;40438;52.992;18.604;2022-08-05T09:48:19;100688.31;;;29.13;38.32
54540;BME280;40438;52.992;18.604;2022-08-05T09:50:48;100674.16;;;29.14;37.85
54540;BME280;40438;52.992;18.604;2022-08-05T09:53:13;100673.50;;;29.30;39.33
54540;BME280;40438;52.992;18.604;2022-08-05T09:55:39;100668.25;;;29.49;37.83
54540;BME280;40438;52.992;18.604;2022-08-05T09:58:10;100670.03;;;29.66;37.71
54540;BME280;40438;52.992;18.604;2022-08-05T10:00:37;100653.09;;;29.80;35.11
54540;BME280;40438;52.992;18.604;2022-08-05T10:03:08;100654.59;;;29.77;35.37
54540;BME280;40438;52.992;18.604;2022-08-05T10:05:35;100653.34;;;29.75;35.85
54540;BME280;40438;52.992;18.604;2022-08-05T10:08:02;100659.78;;;29.67;35.69
54540;BME280;40438;52.992;18.604;2022-08-05T10:10:32;100648.63;;;29.75;35.53
54540;BME280;40438;52.992;18.604;2022-08-05T10:13:00;100644.59;;;29.97;35.56
54540;BME280;40438;52.992;18.604;2022-08-05T10:15:29;100654.00;;;30.21;35.70
54540;BME280;40438;52.992;18.604;2022-08-05T10:18:04;100660.50;;;30.41;34.31
54540;BME280;40438;52.992;18.604;2022-08-05T10:20:31;100672.19;;;30.62;34.65
54540;BME280;40438;52.992;18.604;2022-08-05T10:22:57;100656.53;;;30.54;34.53
54540;BME280;40438;52.992;18.604;2022-08-05T10:25:24;100654.59;;;30.55;34.42
54540;BME280;40438;52.992;18.604;2022-08-05T10:27:50;100637.50;;;30.65;34.08
54540;BME280;40438;52.992;18.604;2022-08-05T10:30:16;100634.13;;;30.71;34.78
54540;BME280;40438;52.992;18.604;2022-08-05T10:32:44;100618.91;;;30.78;33.78
54540;BME280;40438;52.992;18.604;2022-08-05T10:35:10;100630.88;;;30.82;33.86
54540;BME280;40438;52.992;18.604;2022-08-05T10:37:36;100619.84;;;30.97;33.29
54540;BME280;40438;52.992;18.604;2022-08-05T10:40:04;100632.69;;;30.90;33.10
54540;BME280;40438;52.992;18.604;2022-08-05T10:42:34;100624.19;;;30.98;33.73
54540;BME280;40438;52.992;18.604;2022-08-05T10:45:03;100615.66;;;31.04;33.30
54540;BME280;40438;52.992;18.604;2022-08-05T10:47:30;100619.38;;;31.11;32.90
54540;BME280;40438;52.992;18.604;2022-08-05T10:50:04;100615.66;;;31.04;31.57
54540;BME280;40438;52.992;18.604;2022-08-05T10:52:38;100609.94;;;31.12;33.42
54540;BME280;40438;52.992;18.604;2022-08-05T10:55:06;100622.06;;;31.23;34.44
54540;BME280;40438;52.992;18.604;2022-08-05T10:57:32;100599.69;;;31.13;32.71
54540;BME280;40438;52.992;18.604;2022-08-05T11:00:13;100617.06;;;30.97;32.26
54540;BME280;40438;52.992;18.604;2022-08-05T11:03:08;100606.19;;;31.05;32.19
54540;BME280;40438;52.992;18.604;2022-08-05T11:05:37;100609.41;;;31.22;31.66
54540;BME280;40438;52.992;18.604;2022-08-05T11:08:04;100599.22;;;31.27;32.60
54540;BME280;40438;52.992;18.604;2022-08-05T11:10:31;100592.91;;;31.42;32.57
54540;BME280;40438;52.992;18.604;2022-08-05T11:12:58;100607.19;;;31.44;31.66
54540;BME280;40438;52.992;18.604;2022-08-05T11:15:26;100598.53;;;31.45;31.90
54540;BME280;40438;52.992;18.604;2022-08-05T11:17:53;100599.06;;;31.51;31.97
54540;BME280;40438;52.992;18.604;2022-08-05T11:20:34;100593.69;;;31.58;31.91
54540;BME280;40438;52.992;18.604;2022-08-05T11:23:28;100594.75;;;31.70;31.57
54540;BME280;40438;52.992;18.604;2022-08-05T11:26:06;100571.94;;;31.76;30.89
54540;BME280;40438;52.992;18.604;2022-08-05T11:28:45;100577.28;;;31.85;30.41
54540;BME280;40438;52.992;18.604;2022-08-05T11:31:28;100571.19;;;31.95;30.20
54540;BME280;40438;52.992;18.604;2022-08-05T11:33:57;100566.25;;;32.04;30.35
54540;BME280;40438;52.992;18.604;2022-08-05T11:36:48;100563.91;;;32.06;30.59
54540;BME280;40438;52.992;18.604;2022-08-05T11:39:19;100576.81;;;32.18;30.41
54540;BME280;40438;52.992;18.604;2022-08-05T11:42:02;100562.75;;;32.27;30.62
54540;BME280;40438;52.992;18.604;2022-08-05T11:44:35;100551.38;;;32.51;30.41
54540;BME280;40438;52.992;18.604;2022-08-05T11:47:01;100560.22;;;32.80;29.89
54540;BME280;40438;52.992;18.604;2022-08-05T11:49:27;100557.31;;;32.96;29.26
54540;BME280;40438;52.992;18.604;2022-08-05T11:51:53;100557.56;;;33.10;28.90
54540;BME280;40438;52.992;18.604;2022-08-05T11:54:24;100566.22;;;32.86;28.78
54540;BME280;40438;52.992;18.604;2022-08-05T11:56:52;100552.06;;;32.91;28.37
54540;BME280;40438;52.992;18.604;2022-08-05T11:59:19;100561.56;;;33.13;28.21
54540;BME280;40438;52.992;18.604;2022-08-05T12:01:53;100552.59;;;33.23;26.45
54540;BME280;40438;52.992;18.604;2022-08-05T12:04:19;100543.16;;;33.50;26.70
54540;BME280;40438;52.992;18.604;2022-08-05T12:06:45;100540.47;;;33.31;27.75
54540;BME280;40438;52.992;18.604;2022-08-05T12:09:10;100541.97;;;33.51;27.50
54540;BME280;40438;52.992;18.604;2022-08-05T12:11:42;100532.13;;;33.58;27.72
54540;BME280;40438;52.992;18.604;2022-08-05T12:14:08;100531.16;;;33.73;27.90
54540;BME280;40438;52.992;18.604;2022-08-05T12:16:36;100527.09;;;33.67;27.76
54540;BME280;40438;52.992;18.604;2022-08-05T12:19:03;100537.78;;;33.95;28.08
54540;BME280;40438;52.992;18.604;2022-08-05T12:21:30;100519.81;;;34.19;27.82
54540;BME280;40438;52.992;18.604;2022-08-05T12:23:58;100517.66;;;34.39;27.05
54540;BME280;40438;52.992;18.604;2022-08-05T12:26:29;100517.38;;;34.48;26.08
54540;BME280;40438;52.992;18.604;2022-08-05T12:28:56;100524.78;;;34.03;25.85
54540;BME280;40438;52.992;18.604;2022-08-05T12:31:22;100519.81;;;33.85;26.08
54540;BME280;40438;52.992;18.604;2022-08-05T12:33:48;100524.25;;;33.60;27.02
54540;BME280;40438;52.992;18.604;2022-08-05T12:36:14;100530.31;;;33.16;27.50
54540;BME280;40438;52.992;18.604;2022-08-05T12:38:40;100523.97;;;32.92;28.29
54540;BME280;40438;52.992;18.604;2022-08-05T12:41:07;100524.38;;;32.94;28.41
54540;BME280;40438;52.992;18.604;2022-08-05T12:43:33;100530.16;;;33.05;28.13